sensor_id;sensor_type;location;lat;lon;timestamp;P1;durP1;ratioP1;P2;durP2;ratioP2
41532;SDS011;27262;-35.248;149.138;2024-01-30T00:01:19;3.03;;;1.00;;
41532;SDS011;27262;-35.248;149.138;2024-01-30T00:03:50;2.42;;;1.00;;
41532;SDS011;27262;-35.248;149.138;2024-01-30T00:06:20;2.33;;;0.80;;
41532;SDS011;27262;-35.248;149.138;2024-01-30T00:08:51;2.75;;;1.00;;
41532;SDS011;27262;-35.248;149.138;2024-01-30T00:11:22;1.73;;;0.82;;
41532;SDS011;27262;-35.248;149.138;2024-01-30T00:13:54;1.67;;;0.77;;
41532;SDS011;27262;-35.248;149.138;2024-01-30T00:16:25;3.38;;;1.17;;
41532;SDS011;27262;-35.248;149.138;2024-01-30T00:18:55;6.85;;;1.35;;
41532;SDS011;27262;-35.248;149.138;2024-01-30T00:21:26;3.10;;;0.60;;
41532;SDS011;27262;-35.248;149.138;2024-01-30T00:23:57;1.20;;;0.90;;
41532;SDS011;27262;-35.248;149.138;2024-01-30T00:26:27;5.05;;;0.93;;
41532;SDS011;27262;-35.248;149.138;2024-01-30T00:28:57;2.63;;;1.00;;
41532;SDS011;27262;-35.248;149.138;2024-01-30T00:31:28;4.25;;;1.00;;
41532;SDS011;27262;-35.248;149.138;2024-01-30T00:33:58;5.90;;;1.17;;
41532;SDS011;27262;-35.248;149.138;2024-01-30T00:36:28;2.38;;;0.90;;
41532;SDS011;27262;-35.248;149.138;2024-01-30T00:38:59;3.17;;;0.93;;
41532;SDS011;27262;-35.248;149.138;2024-01-30T00:41:29;3.65;;;1.13;;
41532;SDS011;27262;-35.248;149.138;2024-01-30T00:43:59;3.22;;;1.10;;
41532;SDS011;27262;-35.248;149.138;2024-01-30T00:46:30;4.47;;;1.08;;
41532;SDS011;27262;-35.248;149.138;2024-01-30T00:49:00;3.50;;;1.17;;
41532;SDS011;27262;-35.248;149.138;2024-01-30T00:51:31;4.28;;;1.20;;
41532;SDS011;27262;-35.248;149.138;2024-01-30T00:54:01;4.03;;;1.17;;
41532;SDS011;27262;-35.248;149.138;2024-01-30T00:56:31;1.10;;;0.90;;
41532;SDS011;27262;-35.248;149.138;2024-01-30T00:59:02;2.92;;;1.10;;
41532;SDS011;27262;-35.248;149.138;2024-01-30T01:01:32;3.22;;;1.00;;
41532;SDS011;27262;-35.248;149.138;2024-01-30T01:04:02;2.88;;;1.35;;
41532;SDS011;27262;-35.248;149.138;2024-01-30T01:06:33;2.85;;;1.00;;
41532;SDS011;27262;-35.248;149.138;2024-01-30T01:09:03;3.65;;;1.08;;
41532;SDS011;27262;-35.248;149.138;2024-01-30T01:11:34;5.53;;;1.45;;
41532;SDS011;27262;-35.248;149.138;2024-01-30T01:14:04;5.80;;;1.48;;
41532;SDS011;27262;-35.248;149.138;2024-01-30T01:16:35;3.08;;;1.17;;
41532;SDS011;27262;-35.248;149.138;2024-01-30T01:19:06;4.70;;;1.30;;
41532;SDS011;27262;-35.248;149.138;2024-01-30T01:21:36;2.97;;;1.23;;
41532;SDS011;27262;-35.248;149.138;2024-01-30T01:24:07;2.88;;;1.17;;
41532;SDS011;27262;-35.248;149.138;2024-01-30T01:26:37;2.78;;;1.30;;
41532;SDS011;27262;-35.248;149.138;2024-01-30T01:29:07;4.03;;;1.10;;
41532;SDS011;27262;-35.248;149.138;2024-01-30T01:31:40;1.67;;;1.02;;
41532;SDS011;27262;-35.248;149.138;2024-01-30T01:34:14;4.30;;;1.60;;
41532;SDS011;27262;-35.248;149.138;2024-01-30T01:36:45;2.35;;;1.00;;
41532;SDS011;27262;-35.248;149.138;2024-01-30T01:39:15;3.58;;;1.30;;
41532;SDS011;27262;-35.248;149.138;2024-01-30T01:41:46;4.05;;;1.55;;
41532;SDS011;27262;-35.248;149.138;2024-01-30T01:44:17;3.10;;;1.00;;
41532;SDS011;27262;-35.248;149.138;2024-01-30T01:46:48;4.55;;;1.13;;
41532;SDS011;27262;-35.248;149.138;2024-01-30T01:49:19;2.45;;;1.17;;
41532;SDS011;27262;-35.248;149.138;2024-01-30T01:51:53;1.67;;;1.35;;
41532;SDS011;27262;-35.248;149.138;2024-01-30T01:54:25;4.30;;;1.38;;
41532;SDS011;27262;-35.248;149.138;2024-01-30T01:56:57;4.53;;;1.50;;
41532;SDS011;27262;-35.248;149.138;2024-01-30T01:59:28;3.50;;;1.40;;
41532;SDS011;27262;-35.248;149.138;2024-01-30T02:01:59;1.67;;;1.40;;
41532;SDS011;27262;-35.248;149.138;2024-01-30T02:04:31;1.85;;;1.20;;
41532;SDS011;27262;-35.248;149.138;2024-01-30T02:07:02;1.85;;;1.30;;
41532;SDS011;27262;-35.248;149.138;2024-01-30T02:09:32;1.70;;;1.30;;
41532;SDS011;27262;-35.248;149.138;2024-01-30T02:12:02;4.47;;;1.60;;
41532;SDS011;27262;-35.248;149.138;2024-01-30T02:14:33;3.40;;;1.85;;
41532;SDS011;27262;-35.248;149.138;2024-01-30T02:17:13;2.50;;;1.70;;
41532;SDS011;27262;-35.248;149.138;2024-01-30T02:19:45;2.28;;;1.42;;
41532;SDS011;27262;-35.248;149.138;2024-01-30T02:22:15;4.22;;;1.50;;
41532;SDS011;27262;-35.248;149.138;2024-01-30T02:24:47;5.32;;;1.88;;
41532;SDS011;27262;-35.248;149.138;2024-01-30T02:27:17;3.03;;;1.75;;
41532;SDS011;27262;-35.248;149.138;2024-01-30T02:29:48;2.80;;;1.73;;
41532;SDS011;27262;-35.248;149.138;2024-01-30T02:32:18;4.15;;;1.58;;
41532;SDS011;27262;-35.248;149.138;2024-01-30T02:34:49;3.10;;;1.85;;
41532;SDS011;27262;-35.248;149.138;2024-01-30T02:37:19;2.40;;;1.60;;
41532;SDS011;27262;-35.248;149.138;2024-01-30T02:39:50;4.85;;;2.03;;
41532;SDS011;27262;-35.248;149.138;2024-01-30T02:42:20;3.40;;;1.70;;
41532;SDS011;27262;-35.248;149.138;2024-01-30T02:44:50;3.75;;;1.60;;
41532;SDS011;27262;-35.248;149.138;2024-01-30T02:47:21;4.45;;;2.13;;
41532;SDS011;27262;-35.248;149.138;2024-01-30T02:49:51;4.32;;;1.83;;
41532;SDS011;27262;-35.248;149.138;2024-01-30T02:52:22;4.65;;;1.77;;
41532;SDS011;27262;-35.248;149.138;2024-01-30T02:54:53;3.20;;;1.98;;
41532;SDS011;27262;-35.248;149.138;2024-01-30T02:57:23;3.97;;;1.83;;
41532;SDS011;27262;-35.248;149.138;2024-01-30T02:59:54;3.78;;;2.15;;
41532;SDS011;27262;-35.248;149.138;2024-01-30T03:02:24;2.90;;;1.73;;
41532;SDS011;27262;-35.248;149.138;2024-01-30T03:04:54;2.60;;;1.70;;
41532;SDS011;27262;-35.248;149.138;2024-01-30T03:07:25;3.83;;;2.20;;
41532;SDS011;27262;-35.248;149.138;2024-01-30T03:09:56;4.28;;;2.28;;
41532;SDS011;27262;-35.248;149.138;2024-01-30T03:12:26;3.13;;;2.10;;
41532;SDS011;27262;-35.248;149.138;2024-01-30T03:14:56;3.95;;;2.55;;
41532;SDS011;27262;-35.248;149.138;2024-01-30T03:17:27;3.17;;;2.10;;
41532;SDS011;27262;-35.248;149.138;2024-01-30T03:19:57;3.63;;;2.08;;
41532;SDS011;27262;-35.248;149.138;2024-01-30T03:22:28;5.78;;;2.22;;
41532;SDS011;27262;-35.248;149.138;2024-01-30T03:24:58;8.15;;;2.30;;
41532;SDS011;27262;-35.248;149.138;2024-01-30T03:27:29;3.80;;;2.38;;
41532;SDS011;27262;-35.248;149.138;2024-01-30T03:29:59;5.10;;;2.42;;
41532;SDS011;27262;-35.248;149.138;2024-01-30T03:32:30;3.40;;;2.10;;
41532;SDS011;27262;-35.248;149.138;2024-01-30T03:35:00;2.35;;;1.92;;
41532;SDS011;27262;-35.248;149.138;2024-01-30T03:37:30;4.45;;;2.75;;
41532;SDS011;27262;-35.248;149.138;2024-01-30T03:40:01;4.85;;;2.38;;
41532;SDS011;27262;-35.248;149.138;2024-01-30T03:42:32;4.93;;;2.42;;
41532;SDS011;27262;-35.248;149.138;2024-01-30T03:45:03;3.65;;;2.20;;
41532;SDS011;27262;-35.248;149.138;2024-01-30T03:47:33;3.63;;;2.42;;
41532;SDS011;27262;-35.248;149.138;2024-01-30T03:50:04;3.38;;;2.40;;
41532;SDS011;27262;-35.248;149.138;2024-01-30T03:52:34;3.78;;;2.60;;
41532;SDS011;27262;-35.248;149.138;2024-01-30T03:55:05;5.47;;;2.63;;
41532;SDS011;27262;-35.248;149.138;2024-01-30T03:57:35;5.60;;;2.70;;
41532;SDS011;27262;-35.248;149.138;2024-01-30T04:00:06;4.40;;;2.63;;
41532;SDS011;27262;-35.248;149.138;2024-01-30T04:02:37;2.97;;;2.33;;
41532;SDS011;27262;-35.248;149.138;2024-01-30T04:05:07;5.03;;;2.45;;
41532;SDS011;27262;-35.248;149.138;2024-01-30T04:07:38;4.18;;;2.20;;
41532;SDS011;27262;-35.248;149.138;2024-01-30T04:10:09;4.22;;;2.38;;
41532;SDS011;27262;-35.248;149.138;2024-01-30T04:12:39;5.45;;;2.45;;
41532;SDS011;27262;-35.248;149.138;2024-01-30T04:15:09;4.82;;;2.63;;
41532;SDS011;27262;-35.248;149.138;2024-01-30T04:17:41;3.53;;;2.33;;
41532;SDS011;27262;-35.248;149.138;2024-01-30T04:20:15;7.18;;;2.65;;
41532;SDS011;27262;-35.248;149.138;2024-01-30T04:22:46;5.03;;;2.63;;
41532;SDS011;27262;-35.248;149.138;2024-01-30T04:25:32;5.35;;;2.30;;
41532;SDS011;27262;-35.248;149.138;2024-01-30T04:28:03;3.67;;;2.47;;
41532;SDS011;27262;-35.248;149.138;2024-01-30T04:30:33;2.90;;;2.58;;
41532;SDS011;27262;-35.248;149.138;2024-01-30T04:33:04;4.85;;;2.72;;
41532;SDS011;27262;-35.248;149.138;2024-01-30T04:35:34;3.17;;;2.67;;
41532;SDS011;27262;-35.248;149.138;2024-01-30T04:38:05;6.47;;;2.83;;
41532;SDS011;27262;-35.248;149.138;2024-01-30T04:40:35;4.78;;;3.05;;
41532;SDS011;27262;-35.248;149.138;2024-01-30T04:43:06;5.70;;;3.00;;
41532;SDS011;27262;-35.248;149.138;2024-01-30T04:45:36;5.88;;;3.08;;
41532;SDS011;27262;-35.248;149.138;2024-01-30T04:48:07;3.55;;;3.05;;
41532;SDS011;27262;-35.248;149.138;2024-01-30T04:50:37;3.95;;;2.97;;
41532;SDS011;27262;-35.248;149.138;2024-01-30T04:53:08;4.35;;;2.90;;
41532;SDS011;27262;-35.248;149.138;2024-01-30T04:55:38;3.80;;;2.72;;
41532;SDS011;27262;-35.248;149.138;2024-01-30T04:58:08;5.55;;;2.63;;
41532;SDS011;27262;-35.248;149.138;2024-01-30T05:00:59;4.05;;;2.80;;
41532;SDS011;27262;-35.248;149.138;2024-01-30T05:03:32;5.80;;;3.20;;
41532;SDS011;27262;-35.248;149.138;2024-01-30T05:06:24;3.85;;;2.50;;
41532;SDS011;27262;-35.248;149.138;2024-01-30T05:08:58;5.03;;;2.78;;
41532;SDS011;27262;-35.248;149.138;2024-01-30T05:11:28;3.05;;;2.75;;
41532;SDS011;27262;-35.248;149.138;2024-01-30T05:13:59;5.07;;;3.03;;
41532;SDS011;27262;-35.248;149.138;2024-01-30T05:16:29;4.43;;;2.80;;
41532;SDS011;27262;-35.248;149.138;2024-01-30T05:19:00;4.55;;;2.63;;
41532;SDS011;27262;-35.248;149.138;2024-01-30T05:21:30;6.07;;;2.88;;
41532;SDS011;27262;-35.248;149.138;2024-01-30T05:24:00;3.40;;;2.90;;
41532;SDS011;27262;-35.248;149.138;2024-01-30T05:26:31;5.68;;;3.05;;
41532;SDS011;27262;-35.248;149.138;2024-01-30T05:29:01;3.85;;;2.78;;
41532;SDS011;27262;-35.248;149.138;2024-01-30T05:31:32;6.57;;;2.65;;
41532;SDS011;27262;-35.248;149.138;2024-01-30T05:34:03;3.38;;;2.67;;
41532;SDS011;27262;-35.248;149.138;2024-01-30T05:36:35;3.28;;;2.63;;
41532;SDS011;27262;-35.248;149.138;2024-01-30T05:39:05;5.25;;;2.90;;
41532;SDS011;27262;-35.248;149.138;2024-01-30T05:41:36;6.70;;;3.13;;
41532;SDS011;27262;-35.248;149.138;2024-01-30T05:44:06;4.72;;;3.00;;
41532;SDS011;27262;-35.248;149.138;2024-01-30T05:46:36;5.40;;;2.83;;
41532;SDS011;27262;-35.248;149.138;2024-01-30T05:49:08;5.22;;;3.00;;
41532;SDS011;27262;-35.248;149.138;2024-01-30T05:51:38;3.42;;;2.83;;
41532;SDS011;27262;-35.248;149.138;2024-01-30T05:54:09;7.55;;;3.17;;
41532;SDS011;27262;-35.248;149.138;2024-01-30T05:57:03;3.15;;;2.67;;
41532;SDS011;27262;-35.248;149.138;2024-01-30T05:59:34;5.80;;;2.92;;
41532;SDS011;27262;-35.248;149.138;2024-01-30T06:02:08;5.43;;;3.40;;
41532;SDS011;27262;-35.248;149.138;2024-01-30T06:04:39;9.75;;;3.17;;
41532;SDS011;27262;-35.248;149.138;2024-01-30T06:07:09;6.82;;;3.10;;
41532;SDS011;27262;-35.248;149.138;2024-01-30T06:09:40;5.60;;;2.63;;
41532;SDS011;27262;-35.248;149.138;2024-01-30T06:12:10;6.05;;;2.80;;
41532;SDS011;27262;-35.248;149.138;2024-01-30T06:14:41;4.63;;;2.70;;
41532;SDS011;27262;-35.248;149.138;2024-01-30T06:17:14;4.65;;;2.97;;
41532;SDS011;27262;-35.248;149.138;2024-01-30T06:19:44;6.05;;;2.75;;
41532;SDS011;27262;-35.248;149.138;2024-01-30T06:22:15;4.60;;;2.75;;
41532;SDS011;27262;-35.248;149.138;2024-01-30T06:24:46;4.10;;;2.85;;
41532;SDS011;27262;-35.248;149.138;2024-01-30T06:27:19;4.75;;;2.83;;
41532;SDS011;27262;-35.248;149.138;2024-01-30T06:29:49;4.80;;;2.78;;
41532;SDS011;27262;-35.248;149.138;2024-01-30T06:32:19;4.45;;;2.25;;
41532;SDS011;27262;-35.248;149.138;2024-01-30T06:34:50;4.68;;;2.60;;
41532;SDS011;27262;-35.248;149.138;2024-01-30T06:37:20;3.53;;;2.28;;
41532;SDS011;27262;-35.248;149.138;2024-01-30T06:39:51;4.18;;;2.58;;
41532;SDS011;27262;-35.248;149.138;2024-01-30T06:42:22;4.18;;;2.50;;
41532;SDS011;27262;-35.248;149.138;2024-01-30T06:44:52;5.22;;;2.42;;
41532;SDS011;27262;-35.248;149.138;2024-01-30T06:47:23;3.15;;;2.35;;
41532;SDS011;27262;-35.248;149.138;2024-01-30T06:49:53;3.60;;;2.30;;
41532;SDS011;27262;-35.248;149.138;2024-01-30T06:52:23;6.10;;;2.50;;
41532;SDS011;27262;-35.248;149.138;2024-01-30T06:54:54;4.88;;;2.95;;
41532;SDS011;27262;-35.248;149.138;2024-01-30T06:57:24;3.70;;;2.97;;
41532;SDS011;27262;-35.248;149.138;2024-01-30T06:59:56;6.45;;;2.83;;
41532;SDS011;27262;-35.248;149.138;2024-01-30T07:02:27;6.32;;;3.10;;
41532;SDS011;27262;-35.248;149.138;2024-01-30T07:04:57;2.88;;;2.67;;
41532;SDS011;27262;-35.248;149.138;2024-01-30T07:07:29;4.50;;;2.67;;
41532;SDS011;27262;-35.248;149.138;2024-01-30T07:09:59;3.35;;;2.60;;
41532;SDS011;27262;-35.248;149.138;2024-01-30T07:12:30;4.80;;;3.22;;
41532;SDS011;27262;-35.248;149.138;2024-01-30T07:15:00;4.10;;;3.17;;
41532;SDS011;27262;-35.248;149.138;2024-01-30T07:17:32;3.20;;;2.90;;
41532;SDS011;27262;-35.248;149.138;2024-01-30T07:20:03;3.25;;;2.95;;
41532;SDS011;27262;-35.248;149.138;2024-01-30T07:22:34;4.18;;;2.80;;
41532;SDS011;27262;-35.248;149.138;2024-01-30T07:25:05;4.60;;;3.20;;
41532;SDS011;27262;-35.248;149.138;2024-01-30T07:27:36;3.50;;;2.75;;
41532;SDS011;27262;-35.248;149.138;2024-01-30T07:30:06;4.07;;;2.50;;
41532;SDS011;27262;-35.248;149.138;2024-01-30T07:32:37;3.10;;;2.70;;
41532;SDS011;27262;-35.248;149.138;2024-01-30T07:35:07;4.97;;;2.70;;
41532;SDS011;27262;-35.248;149.138;2024-01-30T07:37:38;2.78;;;2.58;;
41532;SDS011;27262;-35.248;149.138;2024-01-30T07:40:08;5.40;;;3.25;;
41532;SDS011;27262;-35.248;149.138;2024-01-30T07:42:39;3.05;;;2.80;;
41532;SDS011;27262;-35.248;149.138;2024-01-30T07:45:12;3.58;;;2.50;;
41532;SDS011;27262;-35.248;149.138;2024-01-30T07:47:43;3.17;;;2.88;;
41532;SDS011;27262;-35.248;149.138;2024-01-30T07:50:13;4.25;;;2.60;;
41532;SDS011;27262;-35.248;149.138;2024-01-30T07:52:44;3.72;;;2.58;;
41532;SDS011;27262;-35.248;149.138;2024-01-30T07:55:17;2.78;;;2.58;;
41532;SDS011;27262;-35.248;149.138;2024-01-30T07:57:48;3.10;;;2.80;;
41532;SDS011;27262;-35.248;149.138;2024-01-30T08:00:20;2.90;;;2.65;;
41532;SDS011;27262;-35.248;149.138;2024-01-30T08:02:51;3.65;;;2.42;;
41532;SDS011;27262;-35.248;149.138;2024-01-30T08:05:22;4.38;;;2.88;;
41532;SDS011;27262;-35.248;149.138;2024-01-30T08:07:53;3.63;;;2.50;;
41532;SDS011;27262;-35.248;149.138;2024-01-30T08:10:24;4.28;;;3.03;;
41532;SDS011;27262;-35.248;149.138;2024-01-30T08:12:54;5.68;;;3.05;;
41532;SDS011;27262;-35.248;149.138;2024-01-30T08:15:25;4.05;;;3.03;;
41532;SDS011;27262;-35.248;149.138;2024-01-30T08:17:55;3.20;;;2.10;;
41532;SDS011;27262;-35.248;149.138;2024-01-30T08:20:27;3.17;;;2.88;;
41532;SDS011;27262;-35.248;149.138;2024-01-30T08:22:57;3.38;;;2.63;;
41532;SDS011;27262;-35.248;149.138;2024-01-30T08:25:29;3.85;;;2.58;;
41532;SDS011;27262;-35.248;149.138;2024-01-30T08:27:59;3.20;;;2.90;;
41532;SDS011;27262;-35.248;149.138;2024-01-30T08:30:30;3.72;;;2.90;;
41532;SDS011;27262;-35.248;149.138;2024-01-30T08:33:01;2.97;;;2.67;;
41532;SDS011;27262;-35.248;149.138;2024-01-30T08:35:31;3.63;;;2.92;;
41532;SDS011;27262;-35.248;149.138;2024-01-30T08:38:02;3.22;;;3.03;;
41532;SDS011;27262;-35.248;149.138;2024-01-30T08:40:32;5.90;;;2.97;;
41532;SDS011;27262;-35.248;149.138;2024-01-30T08:43:03;2.67;;;2.35;;
41532;SDS011;27262;-35.248;149.138;2024-01-30T08:45:34;2.50;;;2.30;;
41532;SDS011;27262;-35.248;149.138;2024-01-30T08:48:04;2.83;;;2.63;;
41532;SDS011;27262;-35.248;149.138;2024-01-30T08:50:36;3.55;;;2.35;;
41532;SDS011;27262;-35.248;149.138;2024-01-30T08:53:06;3.92;;;3.03;;
41532;SDS011;27262;-35.248;149.138;2024-01-30T08:55:39;10.07;;;2.80;;
41532;SDS011;27262;-35.248;149.138;2024-01-30T08:58:10;4.88;;;2.58;;
41532;SDS011;27262;-35.248;149.138;2024-01-30T09:00:40;6.75;;;2.38;;
41532;SDS011;27262;-35.248;149.138;2024-01-30T09:03:11;5.35;;;2.38;;
41532;SDS011;27262;-35.248;149.138;2024-01-30T09:05:41;5.63;;;2.15;;
41532;SDS011;27262;-35.248;149.138;2024-01-30T09:08:11;2.83;;;2.00;;
41532;SDS011;27262;-35.248;149.138;2024-01-30T09:10:42;3.67;;;2.33;;
41532;SDS011;27262;-35.248;149.138;2024-01-30T09:13:13;3.55;;;2.38;;
41532;SDS011;27262;-35.248;149.138;2024-01-30T09:15:43;3.70;;;2.17;;
41532;SDS011;27262;-35.248;149.138;2024-01-30T09:18:14;3.20;;;2.17;;
41532;SDS011;27262;-35.248;149.138;2024-01-30T09:20:45;3.53;;;2.35;;
41532;SDS011;27262;-35.248;149.138;2024-01-30T09:23:16;3.65;;;2.17;;
41532;SDS011;27262;-35.248;149.138;2024-01-30T09:25:48;2.63;;;2.13;;
41532;SDS011;27262;-35.248;149.138;2024-01-30T09:28:18;2.92;;;2.10;;
41532;SDS011;27262;-35.248;149.138;2024-01-30T09:30:53;3.38;;;1.98;;
41532;SDS011;27262;-35.248;149.138;2024-01-30T09:33:23;2.90;;;2.30;;
41532;SDS011;27262;-35.248;149.138;2024-01-30T09:35:53;2.10;;;1.90;;
41532;SDS011;27262;-35.248;149.138;2024-01-30T09:38:24;1.92;;;1.63;;
41532;SDS011;27262;-35.248;149.138;2024-01-30T09:40:57;5.05;;;2.20;;
41532;SDS011;27262;-35.248;149.138;2024-01-30T09:43:35;2.35;;;2.15;;
41532;SDS011;27262;-35.248;149.138;2024-01-30T09:46:07;2.67;;;1.88;;
41532;SDS011;27262;-35.248;149.138;2024-01-30T09:48:44;3.28;;;1.90;;
41532;SDS011;27262;-35.248;149.138;2024-01-30T09:51:16;6.53;;;2.28;;
41532;SDS011;27262;-35.248;149.138;2024-01-30T09:53:47;4.30;;;2.05;;
41532;SDS011;27262;-35.248;149.138;2024-01-30T09:56:18;2.78;;;2.30;;
41532;SDS011;27262;-35.248;149.138;2024-01-30T09:58:49;4.07;;;2.17;;
41532;SDS011;27262;-35.248;149.138;2024-01-30T10:01:20;4.75;;;2.10;;
41532;SDS011;27262;-35.248;149.138;2024-01-30T10:03:51;2.35;;;1.90;;
41532;SDS011;27262;-35.248;149.138;2024-01-30T10:06:21;2.47;;;2.00;;
41532;SDS011;27262;-35.248;149.138;2024-01-30T10:08:54;2.70;;;2.10;;
41532;SDS011;27262;-35.248;149.138;2024-01-30T10:11:24;6.28;;;2.10;;
41532;SDS011;27262;-35.248;149.138;2024-01-30T10:13:55;4.13;;;1.92;;
41532;SDS011;27262;-35.248;149.138;2024-01-30T10:16:25;3.15;;;1.90;;
41532;SDS011;27262;-35.248;149.138;2024-01-30T10:18:56;3.38;;;1.85;;
41532;SDS011;27262;-35.248;149.138;2024-01-30T10:21:26;2.60;;;1.73;;
41532;SDS011;27262;-35.248;149.138;2024-01-30T10:23:57;2.55;;;1.75;;
41532;SDS011;27262;-35.248;149.138;2024-01-30T10:26:28;2.65;;;2.00;;
41532;SDS011;27262;-35.248;149.138;2024-01-30T10:29:01;1.90;;;1.70;;
41532;SDS011;27262;-35.248;149.138;2024-01-30T10:31:32;2.55;;;1.88;;
41532;SDS011;27262;-35.248;149.138;2024-01-30T10:34:02;3.17;;;1.95;;
41532;SDS011;27262;-35.248;149.138;2024-01-30T10:36:46;2.28;;;2.08;;
41532;SDS011;27262;-35.248;149.138;2024-01-30T10:39:19;2.13;;;1.92;;
41532;SDS011;27262;-35.248;149.138;2024-01-30T10:41:51;2.28;;;1.83;;
41532;SDS011;27262;-35.248;149.138;2024-01-30T10:44:28;3.63;;;1.95;;
41532;SDS011;27262;-35.248;149.138;2024-01-30T10:47:08;3.00;;;1.60;;
41532;SDS011;27262;-35.248;149.138;2024-01-30T10:49:44;4.18;;;2.13;;
41532;SDS011;27262;-35.248;149.138;2024-01-30T10:52:15;2.15;;;1.60;;
41532;SDS011;27262;-35.248;149.138;2024-01-30T10:54:46;2.00;;;1.75;;
41532;SDS011;27262;-35.248;149.138;2024-01-30T10:57:19;2.28;;;1.95;;
41532;SDS011;27262;-35.248;149.138;2024-01-30T10:59:52;5.35;;;1.80;;
41532;SDS011;27262;-35.248;149.138;2024-01-30T11:02:25;3.22;;;2.20;;
41532;SDS011;27262;-35.248;149.138;2024-01-30T11:04:57;4.72;;;2.15;;
41532;SDS011;27262;-35.248;149.138;2024-01-30T11:07:29;2.83;;;2.00;;
41532;SDS011;27262;-35.248;149.138;2024-01-30T11:12:39;2.10;;;1.70;;
41532;SDS011;27262;-35.248;149.138;2024-01-30T11:15:13;4.03;;;2.05;;
41532;SDS011;27262;-35.248;149.138;2024-01-30T11:20:22;5.68;;;2.00;;
41532;SDS011;27262;-35.248;149.138;2024-01-30T11:23:01;1.80;;;1.58;;
41532;SDS011;27262;-35.248;149.138;2024-01-30T11:25:35;3.67;;;1.98;;
41532;SDS011;27262;-35.248;149.138;2024-01-30T11:28:06;1.70;;;1.60;;
41532;SDS011;27262;-35.248;149.138;2024-01-30T11:30:44;4.55;;;1.92;;
41532;SDS011;27262;-35.248;149.138;2024-01-30T11:33:26;2.15;;;1.80;;
41532;SDS011;27262;-35.248;149.138;2024-01-30T11:36:01;2.33;;;1.42;;
41532;SDS011;27262;-35.248;149.138;2024-01-30T11:38:35;1.98;;;1.60;;
41532;SDS011;27262;-35.248;149.138;2024-01-30T11:41:08;1.52;;;1.40;;
41532;SDS011;27262;-35.248;149.138;2024-01-30T11:43:39;1.92;;;1.73;;
41532;SDS011;27262;-35.248;149.138;2024-01-30T11:46:10;4.20;;;1.73;;
41532;SDS011;27262;-35.248;149.138;2024-01-30T11:48:40;1.85;;;1.42;;
41532;SDS011;27262;-35.248;149.138;2024-01-30T11:51:12;1.70;;;1.60;;
41532;SDS011;27262;-35.248;149.138;2024-01-30T11:53:43;2.17;;;1.40;;
41532;SDS011;27262;-35.248;149.138;2024-01-30T11:56:13;1.90;;;1.73;;
41532;SDS011;27262;-35.248;149.138;2024-01-30T11:58:43;2.10;;;1.85;;
41532;SDS011;27262;-35.248;149.138;2024-01-30T12:01:14;3.00;;;1.73;;
41532;SDS011;27262;-35.248;149.138;2024-01-30T12:03:50;3.00;;;1.45;;
41532;SDS011;27262;-35.248;149.138;2024-01-30T12:06:20;2.92;;;1.70;;
41532;SDS011;27262;-35.248;149.138;2024-01-30T12:09:00;2.65;;;1.83;;
41532;SDS011;27262;-35.248;149.138;2024-01-30T12:11:44;3.50;;;1.80;;
41532;SDS011;27262;-35.248;149.138;2024-01-30T12:14:15;2.55;;;1.70;;
41532;SDS011;27262;-35.248;149.138;2024-01-30T12:16:48;1.92;;;1.67;;
41532;SDS011;27262;-35.248;149.138;2024-01-30T12:19:23;2.65;;;1.63;;
41532;SDS011;27262;-35.248;149.138;2024-01-30T12:21:54;3.13;;;2.05;;
41532;SDS011;27262;-35.248;149.138;2024-01-30T12:24:28;1.67;;;1.58;;
41532;SDS011;27262;-35.248;149.138;2024-01-30T12:27:01;2.85;;;1.85;;
41532;SDS011;27262;-35.248;149.138;2024-01-30T12:29:32;2.20;;;1.80;;
41532;SDS011;27262;-35.248;149.138;2024-01-30T12:32:06;1.67;;;1.58;;
41532;SDS011;27262;-35.248;149.138;2024-01-30T12:34:40;1.80;;;1.60;;
41532;SDS011;27262;-35.248;149.138;2024-01-30T12:37:26;2.90;;;2.00;;
41532;SDS011;27262;-35.248;149.138;2024-01-30T12:39:58;2.03;;;1.60;;
41532;SDS011;27262;-35.248;149.138;2024-01-30T12:42:28;2.15;;;1.85;;
41532;SDS011;27262;-35.248;149.138;2024-01-30T12:44:58;2.67;;;1.52;;
41532;SDS011;27262;-35.248;149.138;2024-01-30T12:47:29;2.08;;;1.80;;
41532;SDS011;27262;-35.248;149.138;2024-01-30T12:50:00;3.20;;;2.08;;
41532;SDS011;27262;-35.248;149.138;2024-01-30T12:52:30;1.70;;;1.60;;
41532;SDS011;27262;-35.248;149.138;2024-01-30T12:55:01;3.85;;;2.05;;
41532;SDS011;27262;-35.248;149.138;2024-01-30T12:57:32;2.22;;;1.67;;
41532;SDS011;27262;-35.248;149.138;2024-01-30T13:00:03;2.40;;;1.67;;
41532;SDS011;27262;-35.248;149.138;2024-01-30T13:02:34;3.30;;;1.92;;
41532;SDS011;27262;-35.248;149.138;2024-01-30T13:05:05;2.47;;;1.80;;
41532;SDS011;27262;-35.248;149.138;2024-01-30T13:07:36;2.42;;;1.50;;
41532;SDS011;27262;-35.248;149.138;2024-01-30T13:10:06;2.05;;;1.73;;
41532;SDS011;27262;-35.248;149.138;2024-01-30T13:12:38;2.03;;;1.80;;
41532;SDS011;27262;-35.248;149.138;2024-01-30T13:15:08;1.77;;;1.63;;
41532;SDS011;27262;-35.248;149.138;2024-01-30T13:17:39;3.33;;;1.92;;
41532;SDS011;27262;-35.248;149.138;2024-01-30T13:20:11;2.08;;;1.52;;
41532;SDS011;27262;-35.248;149.138;2024-01-30T13:22:47;2.10;;;1.90;;
41532;SDS011;27262;-35.248;149.138;2024-01-30T13:25:18;2.33;;;1.85;;
41532;SDS011;27262;-35.248;149.138;2024-01-30T13:27:48;2.28;;;1.63;;
41532;SDS011;27262;-35.248;149.138;2024-01-30T13:30:19;2.45;;;1.52;;
41532;SDS011;27262;-35.248;149.138;2024-01-30T13:32:49;1.55;;;1.45;;
41532;SDS011;27262;-35.248;149.138;2024-01-30T13:35:19;3.28;;;1.60;;
41532;SDS011;27262;-35.248;149.138;2024-01-30T13:37:50;1.52;;;1.42;;
41532;SDS011;27262;-35.248;149.138;2024-01-30T13:40:20;2.15;;;1.73;;
41532;SDS011;27262;-35.248;149.138;2024-01-30T13:42:51;1.77;;;1.67;;
41532;SDS011;27262;-35.248;149.138;2024-01-30T13:45:21;1.52;;;1.40;;
41532;SDS011;27262;-35.248;149.138;2024-01-30T13:47:51;1.85;;;1.40;;
41532;SDS011;27262;-35.248;149.138;2024-01-30T13:50:22;1.88;;;1.73;;
41532;SDS011;27262;-35.248;149.138;2024-01-30T13:52:52;2.10;;;1.85;;
41532;SDS011;27262;-35.248;149.138;2024-01-30T13:55:24;2.38;;;1.67;;
41532;SDS011;27262;-35.248;149.138;2024-01-30T13:57:57;2.17;;;1.58;;
41532;SDS011;27262;-35.248;149.138;2024-01-30T14:00:28;2.10;;;1.38;;
41532;SDS011;27262;-35.248;149.138;2024-01-30T14:02:58;3.17;;;1.75;;
41532;SDS011;27262;-35.248;149.138;2024-01-30T14:05:29;2.40;;;2.03;;
41532;SDS011;27262;-35.248;149.138;2024-01-30T14:07:59;2.58;;;1.90;;
41532;SDS011;27262;-35.248;149.138;2024-01-30T14:10:30;2.08;;;1.58;;
41532;SDS011;27262;-35.248;149.138;2024-01-30T14:13:00;2.40;;;1.65;;
41532;SDS011;27262;-35.248;149.138;2024-01-30T14:15:31;2.72;;;1.70;;
41532;SDS011;27262;-35.248;149.138;2024-01-30T14:18:01;3.35;;;1.63;;
41532;SDS011;27262;-35.248;149.138;2024-01-30T14:20:32;2.10;;;1.52;;
41532;SDS011;27262;-35.248;149.138;2024-01-30T14:23:02;3.00;;;1.70;;
41532;SDS011;27262;-35.248;149.138;2024-01-30T14:25:32;1.95;;;1.30;;
41532;SDS011;27262;-35.248;149.138;2024-01-30T14:28:03;2.15;;;1.63;;
41532;SDS011;27262;-35.248;149.138;2024-01-30T14:30:34;2.88;;;1.55;;
41532;SDS011;27262;-35.248;149.138;2024-01-30T14:33:04;2.22;;;1.60;;
41532;SDS011;27262;-35.248;149.138;2024-01-30T14:35:35;2.45;;;1.52;;
41532;SDS011;27262;-35.248;149.138;2024-01-30T14:38:05;1.63;;;1.52;;